Time;durP1;ratioP1;P1;durP2;ratioP2;P2;SDS_P1;SDS_P2;PMS_P1;PMS_P2;Temp;Humidity;BMP_temperature;BMP_pressure;BME280_temperature;BME280_humidity;BME280_pressure;Samples;Min_cycle;Max_cycle;Signal;HPM_P1;HPM_P2
2023/12/27 00:01:34;;;;;;;3.50;2.10;;;9.40;99.90;;;;;;5023365;28;20490;-82
2023/12/27 00:04:37;;;;;;;1.90;1.70;;;9.40;99.90;;;;;;5038792;28;20446;-82
2023/12/27 00:07:20;;;;;;;2.17;1.97;;;9.40;99.90;;;;;;5026998;28;20917;-82
2023/12/27 00:10:15;;;;;;;4.00;2.73;;;9.30;99.90;;;;;;5025520;28;20426;-81
2023/12/27 00:13:03;;;;;;;3.40;2.30;;;9.30;99.90;;;;;;5027090;28;20453;-81
2023/12/27 00:19:02;;;;;;;1.90;1.80;;;9.20;99.90;;;;;;5035741;28;20488;-82
2023/12/27 00:21:59;;;;;;;3.73;2.10;;;9.20;99.90;;;;;;5022370;28;20483;-83
2023/12/27 00:24:39;;;;;;;2.93;1.90;;;9.20;99.90;;;;;;5033647;28;20451;-81
2023/12/27 00:27:28;;;;;;;1.93;1.83;;;9.20;99.90;;;;;;5041416;28;20435;-81
2023/12/27 00:30:13;;;;;;;1.80;1.70;;;9.00;99.90;;;;;;5041689;28;20450;-82
2023/12/27 00:32:57;;;;;;;1.70;1.60;;;9.30;99.90;;;;;;5023610;28;20446;-83
2023/12/27 00:35:34;;;;;;;2.67;1.90;;;9.20;99.90;;;;;;5024274;28;20479;-83
2023/12/27 00:38:14;;;;;;;2.60;1.90;;;9.20;99.90;;;;;;5041592;28;20454;-82
2023/12/27 00:41:10;;;;;;;2.20;2.00;;;9.30;99.90;;;;;;5040275;28;20446;-83
2023/12/27 00:43:57;;;;;;;1.90;1.80;;;9.30;99.90;;;;;;5041141;28;20478;-82
2023/12/27 00:46:37;;;;;;;2.30;2.10;;;9.30;99.90;;;;;;5043254;28;20450;-82
2023/12/27 00:49:27;;;;;;;2.70;1.80;;;9.30;99.90;;;;;;5042918;28;20501;-82
2023/12/27 00:52:12;;;;;;;2.70;1.70;;;9.30;99.90;;;;;;5042777;28;20536;-81
2023/12/27 00:55:09;;;;;;;1.73;1.63;;;9.30;99.90;;;;;;5043865;28;20446;-81
2023/12/27 00:57:59;;;;;;;2.30;1.90;;;9.40;99.90;;;;;;5044118;28;20831;-82
2023/12/27 01:00:45;;;;;;;2.63;1.80;;;9.30;99.90;;;;;;5046054;28;20470;-82
2023/12/27 01:03:27;;;;;;;2.23;1.60;;;9.30;99.90;;;;;;5043453;28;20504;-80
2023/12/27 01:06:09;;;;;;;2.27;2.03;;;9.30;99.90;;;;;;5030292;28;20438;-80
2023/12/27 01:08:46;;;;;;;2.40;1.60;;;9.30;99.90;;;;;;5024443;28;20494;-80
2023/12/27 01:11:32;;;;;;;2.30;1.90;;;9.40;99.90;;;;;;5025705;28;20468;-79
2023/12/27 01:14:10;;;;;;;1.57;1.50;;;9.40;99.90;;;;;;5022832;28;20903;-80
2023/12/27 01:16:51;;;;;;;2.90;1.70;;;9.40;99.90;;;;;;5022285;28;20471;-82
2023/12/27 01:19:32;;;;;;;2.50;2.30;;;9.40;99.90;;;;;;5024398;28;20451;-83
2023/12/27 01:22:12;;;;;;;3.00;2.10;;;9.10;99.90;;;;;;5023977;28;20467;-84
2023/12/27 01:24:53;;;;;;;2.10;1.77;;;9.30;99.90;;;;;;5021896;28;20455;-85
2023/12/27 01:27:34;;;;;;;2.10;1.93;;;9.40;99.90;;;;;;5041635;28;20460;-82
2023/12/27 01:30:12;;;;;;;2.73;1.70;;;9.30;99.90;;;;;;5039850;28;20455;-84
2023/12/27 01:32:46;;;;;;;4.47;1.63;;;9.30;99.90;;;;;;5039011;28;20435;-84
2023/12/27 01:35:15;;;;;;;2.17;2.07;;;9.40;99.90;;;;;;5039196;28;20461;-83
2023/12/27 01:37:52;;;;;;;1.70;1.60;;;9.40;99.90;;;;;;5039191;28;20474;-84
2023/12/27 01:40:25;;;;;;;2.90;2.20;;;9.40;99.90;;;;;;5042901;28;20490;-82
2023/12/27 01:43:04;;;;;;;2.07;1.80;;;9.40;99.90;;;;;;5041023;28;20454;-83
2023/12/27 01:45:43;;;;;;;2.53;2.33;;;9.30;99.90;;;;;;5040071;28;20470;-82
2023/12/27 01:48:24;;;;;;;4.33;2.23;;;9.40;99.90;;;;;;5040801;28;20477;-82
2023/12/27 01:51:12;;;;;;;1.90;1.80;;;9.10;99.90;;;;;;5038585;28;20474;-82
2023/12/27 01:53:52;;;;;;;2.03;1.80;;;9.40;99.90;;;;;;5038201;28;20484;-83
2023/12/27 01:56:40;;;;;;;2.20;2.00;;;9.60;99.90;;;;;;5043288;28;20474;-83
2023/12/27 01:59:27;;;;;;;2.90;2.10;;;9.40;99.90;;;;;;5044595;28;20450;-84
2023/12/27 02:02:06;;;;;;;2.27;2.07;;;9.40;99.90;;;;;;5045524;28;20504;-82
2023/12/27 02:04:42;;;;;;;5.60;3.00;;;9.10;99.90;;;;;;5040620;28;20461;-83
2023/12/27 02:07:22;;;;;;;4.20;3.00;;;9.40;99.90;;;;;;5039447;28;20468;-83
2023/12/27 02:09:53;;;;;;;3.50;3.20;;;9.30;99.90;;;;;;5038036;28;20457;-82
2023/12/27 02:12:31;;;;;;;3.60;3.10;;;9.30;99.90;;;;;;5038145;28;20450;-82
2023/12/27 02:15:07;;;;;;;3.37;3.10;;;9.30;99.90;;;;;;5041958;28;20450;-80
2023/12/27 02:17:46;;;;;;;4.13;3.17;;;9.30;99.90;;;;;;5042461;28;20991;-81
2023/12/27 02:20:22;;;;;;;5.97;3.23;;;9.30;99.90;;;;;;5040823;28;20468;-82
2023/12/27 02:22:58;;;;;;;2.90;2.67;;;9.20;99.90;;;;;;5039298;28;20470;-82
2023/12/27 02:25:37;;;;;;;4.73;3.50;;;9.40;99.90;;;;;;5040279;28;21013;-82
2023/12/27 02:28:18;;;;;;;4.83;3.33;;;9.10;99.90;;;;;;5040085;28;20513;-83
2023/12/27 02:30:50;;;;;;;6.00;3.70;;;9.00;99.90;;;;;;5039819;28;20470;-84
2023/12/27 02:33:26;;;;;;;3.90;3.60;;;9.00;99.90;;;;;;5039504;28;20450;-82
2023/12/27 02:35:54;;;;;;;3.27;2.97;;;9.00;99.90;;;;;;5040784;28;20566;-82
2023/12/27 02:38:33;;;;;;;3.40;3.03;;;9.00;99.90;;;;;;5039995;28;20849;-82
2023/12/27 02:41:10;;;;;;;6.30;3.27;;;9.00;99.90;;;;;;5040536;28;20466;-81
2023/12/27 02:43:50;;;;;;;5.00;3.20;;;9.00;99.90;;;;;;5039582;28;20534;-82
2023/12/27 02:46:29;;;;;;;4.47;3.40;;;8.90;99.90;;;;;;5039035;28;20782;-82
2023/12/27 02:49:16;;;;;;;4.43;3.23;;;8.90;99.90;;;;;;5039606;28;20530;-82
2023/12/27 02:51:51;;;;;;;3.80;3.50;;;9.00;99.90;;;;;;5037899;28;20482;-82
2023/12/27 02:54:37;;;;;;;5.77;3.33;;;8.90;99.90;;;;;;5037626;28;21016;-82
2023/12/27 02:57:28;;;;;;;5.63;3.70;;;8.90;99.90;;;;;;5038817;28;20544;-82
2023/12/27 03:00:20;;;;;;;3.97;3.63;;;8.90;99.90;;;;;;5038184;28;20458;-82
2023/12/27 03:02:56;;;;;;;4.47;3.47;;;8.70;99.90;;;;;;5037693;28;20458;-85
2023/12/27 03:05:36;;;;;;;3.90;3.60;;;8.80;99.90;;;;;;5037924;28;20461;-84
2023/12/27 03:08:16;;;;;;;4.30;3.27;;;8.50;99.90;;;;;;5038539;28;20480;-81
2023/12/27 03:10:49;;;;;;;4.10;3.40;;;8.70;99.90;;;;;;5037037;28;20611;-83
2023/12/27 03:13:52;;;;;;;3.73;3.43;;;8.60;99.90;;;;;;5036916;28;20446;-81
2023/12/27 03:16:38;;;;;;;5.53;3.47;;;8.60;99.90;;;;;;5037325;28;20470;-81
2023/12/27 03:19:12;;;;;;;3.80;3.47;;;8.60;99.90;;;;;;5036904;28;20450;-82
2023/12/27 03:21:48;;;;;;;5.83;3.80;;;8.60;99.90;;;;;;5037048;28;20469;-82
2023/12/27 03:24:26;;;;;;;5.57;3.63;;;8.60;99.90;;;;;;5036239;28;20458;-82
2023/12/27 03:27:13;;;;;;;4.60;4.20;;;8.50;99.90;;;;;;5036757;28;20446;-83
2023/12/27 03:29:48;;;;;;;4.10;3.70;;;8.60;99.90;;;;;;5037837;28;20481;-83
2023/12/27 03:32:29;;;;;;;4.80;3.80;;;8.60;99.90;;;;;;5037528;28;20470;-82
2023/12/27 03:35:00;;;;;;;3.97;3.67;;;8.60;99.90;;;;;;5037306;28;20526;-83
2023/12/27 03:37:35;;;;;;;5.17;3.70;;;8.60;99.90;;;;;;5037782;28;20473;-83
2023/12/27 03:40:17;;;;;;;4.03;3.50;;;8.60;99.90;;;;;;5036793;28;20537;-83
2023/12/27 03:42:52;;;;;;;4.20;3.80;;;8.70;99.90;;;;;;5037546;28;20545;-83
2023/12/27 03:45:40;;;;;;;3.83;3.40;;;8.60;99.90;;;;;;5037968;28;20508;-83
2023/12/27 03:48:27;;;;;;;4.30;3.90;;;8.60;99.90;;;;;;5037705;28;20461;-82
2023/12/27 03:51:02;;;;;;;5.60;3.83;;;8.60;99.90;;;;;;5038005;28;20484;-84
2023/12/27 03:53:38;;;;;;;4.60;3.70;;;8.60;99.90;;;;;;5038457;28;20512;-83
2023/12/27 03:56:26;;;;;;;3.80;3.40;;;8.60;99.90;;;;;;5020312;28;20443;-82
2023/12/27 03:58:55;;;;;;;4.90;3.80;;;8.30;99.90;;;;;;5024425;28;20448;-85
2023/12/27 04:04:33;;;;;;;4.70;4.10;;;8.50;99.90;;;;;;5024263;28;20861;-84
2023/12/27 04:07:08;;;;;;;4.40;4.00;;;8.60;99.90;;;;;;5043348;28;20508;-82
2023/12/27 04:09:47;;;;;;;4.77;4.37;;;8.60;99.90;;;;;;5044826;28;20450;-82
2023/12/27 04:12:20;;;;;;;4.33;3.93;;;8.60;99.90;;;;;;5049604;28;20537;-83
2023/12/27 04:14:53;;;;;;;7.10;4.27;;;8.60;99.90;;;;;;5046973;28;20450;-83
2023/12/27 04:17:28;;;;;;;4.17;3.77;;;8.60;99.90;;;;;;5046801;28;20450;-84
2023/12/27 04:20:01;;;;;;;9.90;4.20;;;8.50;99.90;;;;;;5044650;28;20902;-82
2023/12/27 04:22:34;;;;;;;3.70;3.40;;;8.50;99.90;;;;;;5044647;28;20473;-81
2023/12/27 04:25:06;;;;;;;5.00;3.40;;;8.50;99.90;;;;;;5042808;28;20508;-83
2023/12/27 04:27:44;;;;;;;3.47;3.23;;;8.60;99.90;;;;;;5048601;28;20450;-83
2023/12/27 04:30:16;;;;;;;3.87;3.57;;;8.80;99.90;;;;;;5049040;28;20456;-85
2023/12/27 04:32:48;;;;;;;4.30;4.00;;;8.50;99.90;;;;;;5049451;28;20470;-83
2023/12/27 04:35:29;;;;;;;6.20;3.97;;;8.60;99.90;;;;;;5048171;28;20443;-84
2023/12/27 04:38:00;;;;;;;5.87;3.63;;;8.60;99.90;;;;;;5042544;28;20500;-83
2023/12/27 04:40:38;;;;;;;3.87;3.50;;;8.60;99.90;;;;;;5042229;28;20459;-82
2023/12/27 04:43:15;;;;;;;4.83;3.63;;;8.80;99.90;;;;;;5023264;28;20802;-82
2023/12/27 04:45:49;;;;;;;4.37;4.07;;;8.20;99.90;;;;;;5023655;28;20443;-83
2023/12/27 04:48:22;;;;;;;5.50;4.03;;;8.50;99.90;;;;;;5022549;28;20513;-82
2023/12/27 04:50:50;;;;;;;5.30;3.57;;;8.50;99.90;;;;;;5024273;28;20538;-84
2023/12/27 04:53:28;;;;;;;5.27;4.20;;;8.50;99.90;;;;;;5024237;28;20454;-82
2023/12/27 04:56:06;;;;;;;4.63;4.20;;;8.50;99.90;;;;;;5045678;28;20454;-83
2023/12/27 04:58:48;;;;;;;4.50;3.70;;;8.50;99.90;;;;;;5043615;28;20470;-83
2023/12/27 05:01:39;;;;;;;5.57;3.93;;;8.40;99.90;;;;;;5043753;28;20504;-83
2023/12/27 05:04:25;;;;;;;4.30;3.47;;;8.10;99.90;;;;;;5046472;28;20531;-83
2023/12/27 05:07:07;;;;;;;6.57;3.90;;;8.40;99.90;;;;;;5042820;28;20462;-84
2023/12/27 05:09:47;;;;;;;5.80;3.63;;;8.40;99.90;;;;;;5042051;28;20541;-83
2023/12/27 05:12:20;;;;;;;5.90;4.30;;;8.10;99.90;;;;;;5040018;28;20448;-83
2023/12/27 05:15:06;;;;;;;4.20;3.80;;;8.40;99.90;;;;;;5021606;28;20515;-84
2023/12/27 05:17:47;;;;;;;9.03;4.63;;;8.40;99.90;;;;;;5029963;28;20485;-84
2023/12/27 05:20:27;;;;;;;5.50;3.93;;;8.30;99.90;;;;;;5040853;28;20457;-83
2023/12/27 05:23:06;;;;;;;4.00;3.60;;;8.30;99.90;;;;;;5039409;28;20571;-83
2023/12/27 05:25:38;;;;;;;4.13;3.73;;;8.30;99.90;;;;;;5040493;28;20466;-82
2023/12/27 05:28:26;;;;;;;3.93;3.57;;;8.30;99.90;;;;;;5041158;28;20443;-82
2023/12/27 05:31:04;;;;;;;4.93;4.13;;;8.30;99.90;;;;;;5039216;28;20482;-82
2023/12/27 05:33:51;;;;;;;6.07;4.17;;;8.20;99.90;;;;;;5040415;28;20532;-82
2023/12/27 05:36:29;;;;;;;6.07;4.73;;;8.10;99.90;;;;;;5052394;28;20446;-83
2023/12/27 05:39:12;;;;;;;6.80;4.50;;;8.10;99.90;;;;;;5052442;28;20493;-85
2023/12/27 05:41:54;;;;;;;5.13;4.63;;;8.10;99.90;;;;;;5027586;28;20494;-83
2023/12/27 05:44:39;;;;;;;4.80;3.97;;;8.10;99.90;;;;;;5023862;28;20455;-83
2023/12/27 05:47:17;;;;;;;6.50;4.50;;;8.00;99.90;;;;;;5019035;28;20471;-83
2023/12/27 05:50:00;;;;;;;6.37;3.70;;;8.00;99.90;;;;;;5021127;28;20458;-83
2023/12/27 05:52:54;;;;;;;6.40;3.90;;;8.30;99.90;;;;;;5022211;28;20534;-84
2023/12/27 05:58:26;;;;;;;5.37;4.77;;;8.00;99.90;;;;;;5010532;28;20492;-83
2023/12/27 06:01:09;;;;;;;4.87;4.40;;;8.00;99.90;;;;;;5021380;28;20479;-82
2023/12/27 06:03:58;;;;;;;6.17;4.60;;;7.90;99.90;;;;;;5021592;28;20482;-82
2023/12/27 06:06:28;;;;;;;5.17;3.83;;;7.80;99.90;;;;;;5022562;28;20451;-82
2023/12/27 06:09:07;;;;;;;5.57;5.10;;;7.90;99.90;;;;;;5023773;28;20758;-82
2023/12/27 06:11:42;;;;;;;6.90;4.90;;;7.80;99.90;;;;;;5022614;28;20570;-83
2023/12/27 06:14:20;;;;;;;8.57;5.33;;;7.80;99.90;;;;;;5029004;28;20455;-84
2023/12/27 06:17:23;;;;;;;5.67;5.07;;;7.80;99.90;;;;;;5033388;28;20538;-84
2023/12/27 06:20:02;;;;;;;7.90;4.70;;;7.80;99.90;;;;;;5028279;28;20482;-82
2023/12/27 06:22:42;;;;;;;6.60;4.73;;;7.80;99.90;;;;;;5024222;28;20455;-83
2023/12/27 06:25:31;;;;;;;7.47;5.30;;;8.00;99.90;;;;;;5022541;28;20474;-83
2023/12/27 06:28:13;;;;;;;5.67;5.17;;;8.00;99.90;;;;;;5022130;28;20826;-82
2023/12/27 06:30:58;;;;;;;6.03;5.47;;;7.70;99.90;;;;;;5020981;28;20994;-82
2023/12/27 06:33:35;;;;;;;4.70;4.23;;;7.70;99.90;;;;;;5023545;28;20459;-82
2023/12/27 06:36:13;;;;;;;18.53;13.87;;;7.60;99.90;;;;;;5021238;28;20509;-83
2023/12/27 06:38:46;;;;;;;9.40;8.17;;;7.60;99.90;;;;;;5021318;28;20509;-82
2023/12/27 06:41:38;;;;;;;6.10;5.60;;;7.30;99.90;;;;;;5020284;28;20476;-82
2023/12/27 06:44:18;;;;;;;6.10;5.37;;;7.50;99.90;;;;;;5020169;28;20458;-82
2023/12/27 06:46:52;;;;;;;6.23;5.20;;;7.50;99.90;;;;;;5020855;28;20436;-81
2023/12/27 06:49:33;;;;;;;6.70;5.03;;;7.50;99.90;;;;;;5020346;28;20486;-84
2023/12/27 06:52:22;;;;;;;6.13;5.40;;;7.50;99.90;;;;;;5019153;28;20478;-82
2023/12/27 06:55:12;;;;;;;6.23;5.03;;;7.50;99.90;;;;;;5021496;28;20523;-84
2023/12/27 06:57:49;;;;;;;6.03;5.10;;;7.30;99.90;;;;;;5022883;28;20483;-82
2023/12/27 07:00:28;;;;;;;5.27;4.77;;;7.50;99.90;;;;;;5020617;28;20467;-84
2023/12/27 07:03:03;;;;;;;8.70;4.97;;;7.50;99.90;;;;;;5020491;28;20895;-83
2023/12/27 07:05:59;;;;;;;7.40;5.27;;;7.40;99.90;;;;;;5023363;28;20457;-81
2023/12/27 07:08:35;;;;;;;8.60;5.57;;;7.30;99.90;;;;;;5041024;28;20493;-82
2023/12/27 07:11:21;;;;;;;5.20;4.77;;;7.30;99.90;;;;;;5040615;28;20504;-83
2023/12/27 07:14:01;;;;;;;5.73;4.40;;;7.00;99.90;;;;;;5041487;28;20512;-80
2023/12/27 07:16:42;;;;;;;6.50;4.90;;;7.30;99.90;;;;;;5036813;28;20455;-79
2023/12/27 07:19:27;;;;;;;7.33;4.70;;;7.30;99.90;;;;;;5020908;28;20482;-80
2023/12/27 07:22:07;;;;;;;4.80;4.37;;;7.30;99.90;;;;;;5028204;28;20473;-80
2023/12/27 07:27:29;;;;;;;5.33;4.90;;;7.30;99.90;;;;;;5041463;28;20435;-84
2023/12/27 07:30:04;;;;;;;5.43;4.30;;;7.30;99.90;;;;;;5043327;28;20466;-83
2023/12/27 07:32:39;;;;;;;14.93;13.33;;;7.50;99.90;;;;;;5046211;28;20467;-83
2023/12/27 07:35:23;;;;;;;13.13;9.77;;;7.30;99.90;;;;;;5045795;28;20448;-83
2023/12/27 07:38:03;;;;;;;16.70;7.33;;;7.50;99.90;;;;;;5047274;28;20510;-82
2023/12/27 07:40:39;;;;;;;6.67;6.07;;;7.20;99.90;;;;;;5048704;28;20514;-83
2023/12/27 07:43:12;;;;;;;7.43;5.70;;;7.30;99.90;;;;;;5049913;28;20446;-82
2023/12/27 07:45:44;;;;;;;8.83;5.77;;;7.00;99.90;;;;;;5050338;28;20517;-83
2023/12/27 07:48:22;;;;;;;5.50;5.00;;;7.50;99.90;;;;;;5050410;28;20881;-83
2023/12/27 07:50:56;;;;;;;5.30;4.80;;;7.30;99.90;;;;;;5041925;28;20483;-82
2023/12/27 07:53:30;;;;;;;9.03;5.80;;;7.30;99.90;;;;;;5040169;28;20537;-81
2023/12/27 07:56:19;;;;;;;6.80;5.60;;;7.30;99.90;;;;;;5042567;28;20433;-82
2023/12/27 07:58:58;;;;;;;6.60;5.97;;;7.00;99.90;;;;;;5042989;28;20474;-81
2023/12/27 08:01:37;;;;;;;6.73;6.07;;;7.40;99.90;;;;;;5042948;28;20497;-79
2023/12/27 08:04:14;;;;;;;6.03;4.83;;;7.40;99.90;;;;;;5044584;28;20455;-79
2023/12/27 08:06:54;;;;;;;9.00;6.10;;;7.40;99.90;;;;;;5027586;28;20454;-80
2023/12/27 08:09:26;;;;;;;8.77;5.70;;;7.30;99.90;;;;;;5035921;28;20559;-79
2023/12/27 08:12:00;;;;;;;5.97;5.43;;;7.50;99.90;;;;;;5044192;28;20459;-80
2023/12/27 08:14:31;;;;;;;8.57;5.87;;;7.30;99.90;;;;;;5043411;28;20500;-80
2023/12/27 08:17:03;;;;;;;7.57;6.13;;;7.60;99.90;;;;;;5024479;28;20452;-83
2023/12/27 08:20:04;;;;;;;9.87;8.13;;;7.40;99.90;;;;;;5018933;28;20560;-80
2023/12/27 08:22:41;;;;;;;8.93;8.03;;;7.40;99.90;;;;;;5029062;28;20442;-82
2023/12/27 08:25:20;;;;;;;9.90;7.37;;;7.40;99.90;;;;;;5038448;28;20460;-81
2023/12/27 08:27:53;;;;;;;7.60;6.83;;;7.80;99.90;;;;;;5038786;28;20497;-80
2023/12/27 08:30:22;;;;;;;8.33;6.90;;;7.50;99.90;;;;;;5028078;28;20462;-79
2023/12/27 08:32:59;;;;;;;6.53;5.90;;;7.30;99.90;;;;;;5022903;28;20435;-82
2023/12/27 08:35:35;;;;;;;6.57;5.90;;;7.80;99.90;;;;;;5037773;28;20435;-80
2023/12/27 08:38:13;;;;;;;10.77;7.50;;;7.30;99.90;;;;;;5023139;28;20506;-81
2023/12/27 08:40:49;;;;;;;7.33;6.30;;;7.60;99.90;;;;;;5040092;28;20550;-82
2023/12/27 08:43:27;;;;;;;9.07;6.43;;;7.70;99.90;;;;;;5033342;28;20470;-80
2023/12/27 08:46:13;;;;;;;8.90;8.00;;;7.70;99.90;;;;;;5037458;28;20442;-80
2023/12/27 08:48:46;;;;;;;6.63;6.00;;;7.70;99.90;;;;;;5042059;28;20468;-83
2023/12/27 08:51:33;;;;;;;9.37;6.30;;;7.70;99.90;;;;;;5028488;28;20499;-82
2023/12/27 08:54:19;;;;;;;9.70;5.87;;;7.70;99.90;;;;;;5023002;28;20462;-83
2023/12/27 08:57:04;;;;;;;6.70;6.00;;;7.70;99.90;;;;;;5031511;28;20481;-82
2023/12/27 08:59:39;;;;;;;6.50;5.80;;;7.70;99.90;;;;;;5043071;28;20482;-81
2023/12/27 09:02:14;;;;;;;6.60;6.07;;;7.70;99.90;;;;;;5035266;28;20474;-83
2023/12/27 09:04:46;;;;;;;5.73;5.27;;;7.80;99.90;;;;;;5030707;28;20455;-80
2023/12/27 09:07:19;;;;;;;6.13;5.53;;;8.00;99.90;;;;;;5032168;28;20454;-82
2023/12/27 09:09:57;;;;;;;7.70;5.53;;;8.20;99.90;;;;;;5035693;28;20518;-80
2023/12/27 09:12:35;;;;;;;5.53;4.80;;;8.30;99.90;;;;;;5034685;28;20446;-83
2023/12/27 09:15:11;;;;;;;9.80;6.43;;;8.50;99.90;;;;;;5036442;28;20477;-81
2023/12/27 09:17:49;;;;;;;4.67;4.27;;;8.50;99.90;;;;;;5031915;28;20927;-82
2023/12/27 09:20:27;;;;;;;4.80;4.30;;;8.60;99.90;;;;;;5033039;28;20468;-80
2023/12/27 09:23:00;;;;;;;4.07;3.67;;;8.60;99.90;;;;;;5029800;28;20454;-80
2023/12/27 09:25:38;;;;;;;7.50;4.40;;;8.70;99.90;;;;;;5030415;28;20459;-81
2023/12/27 09:28:22;;;;;;;4.60;4.20;;;8.90;99.90;;;;;;5033700;28;20439;-82
2023/12/27 09:31:10;;;;;;;4.53;4.13;;;9.20;99.90;;;;;;5036869;28;20478;-81
2023/12/27 09:33:50;;;;;;;7.83;4.67;;;9.40;99.90;;;;;;5035438;28;20450;-83
2023/12/27 09:36:27;;;;;;;4.90;4.40;;;9.50;99.90;;;;;;5036278;28;20444;-81
2023/12/27 09:39:03;;;;;;;4.17;3.60;;;9.70;99.90;;;;;;5034000;28;20474;-82
2023/12/27 09:41:35;;;;;;;5.07;4.67;;;9.60;99.90;;;;;;5031883;28;20471;-81
2023/12/27 09:44:11;;;;;;;4.97;4.47;;;9.60;99.90;;;;;;5033130;28;20438;-82
2023/12/27 09:46:42;;;;;;;5.73;3.70;;;9.60;99.90;;;;;;5034180;28;20474;-81
2023/12/27 09:49:17;;;;;;;5.90;4.10;;;9.80;99.90;;;;;;5046779;28;20460;-79
2023/12/27 09:51:55;;;;;;;4.60;4.20;;;9.60;99.90;;;;;;5046826;28;20465;-80
2023/12/27 09:54:26;;;;;;;4.30;3.90;;;9.30;99.90;;;;;;5036248;28;20462;-80
2023/12/27 09:57:15;;;;;;;4.53;4.13;;;9.90;99.90;;;;;;5039720;28;20447;-83
2023/12/27 10:03:12;;;;;;;6.40;4.03;;;10.30;99.90;;;;;;5045722;28;20421;-81
2023/12/27 10:05:53;;;;;;;5.07;3.80;;;10.60;99.90;;;;;;5042090;28;20442;-81
2023/12/27 10:08:35;;;;;;;4.10;3.80;;;10.50;99.90;;;;;;5046912;28;20424;-80
2023/12/27 10:11:24;;;;;;;7.83;4.23;;;10.80;99.90;;;;;;5045556;28;20503;-79
2023/12/27 10:13:55;;;;;;;4.63;4.20;;;11.10;99.90;;;;;;5045760;28;20470;-80
2023/12/27 10:16:40;;;;;;;4.63;4.23;;;11.20;99.90;;;;;;5039534;28;20542;-80
2023/12/27 10:19:44;;;;;;;4.23;3.90;;;11.40;99.90;;;;;;5041982;28;20485;-82
2023/12/27 10:22:15;;;;;;;5.00;4.50;;;11.60;99.90;;;;;;5035779;28;20471;-80
2023/12/27 10:24:47;;;;;;;5.30;4.17;;;11.80;99.90;;;;;;5031052;28;20452;-80
2023/12/27 10:27:20;;;;;;;6.57;4.73;;;11.80;99.90;;;;;;5032241;28;20474;-81
2023/12/27 10:29:51;;;;;;;6.93;4.73;;;11.60;99.90;;;;;;5036770;28;20538;-81
2023/12/27 10:32:25;;;;;;;9.03;3.83;;;11.30;99.90;;;;;;5033650;28;20519;-82
2023/12/27 10:35:12;;;;;;;7.63;5.03;;;11.50;99.90;;;;;;5026095;28;20467;-83
2023/12/27 10:37:43;;;;;;;11.77;4.97;;;11.00;99.90;;;;;;5050444;28;20466;-79
2023/12/27 10:40:29;;;;;;;4.03;3.60;;;11.30;99.90;;;;;;5046147;28;20463;-80
2023/12/27 10:43:02;;;;;;;5.40;4.20;;;11.40;99.90;;;;;;5046374;28;20447;-82
2023/12/27 10:45:42;;;;;;;4.33;3.60;;;11.60;99.90;;;;;;5045897;28;20446;-81
2023/12/27 10:48:16;;;;;;;5.07;4.40;;;11.80;99.90;;;;;;5047469;28;20447;-80
2023/12/27 10:50:52;;;;;;;4.27;3.87;;;11.90;99.90;;;;;;5048035;28;20450;-79
2023/12/27 10:53:34;;;;;;;5.20;4.80;;;12.00;99.90;;;;;;5048269;28;20445;-80
2023/12/27 10:56:26;;;;;;;6.50;5.63;;;12.10;99.90;;;;;;5045218;28;20451;-81
2023/12/27 10:59:19;;;;;;;9.90;8.90;;;12.20;99.90;;;;;;5047525;28;20471;-80
2023/12/27 11:01:51;;;;;;;5.90;4.40;;;12.30;99.90;;;;;;5046595;28;20510;-81
2023/12/27 11:04:32;;;;;;;4.23;3.43;;;12.60;99.90;;;;;;5047686;28;20435;-83
2023/12/27 11:07:05;;;;;;;6.07;3.00;;;12.60;99.90;;;;;;5045184;28;20892;-80
2023/12/27 11:09:47;;;;;;;3.60;2.60;;;12.40;99.90;;;;;;5046479;28;20493;-80
2023/12/27 11:12:22;;;;;;;2.80;2.60;;;12.70;99.90;;;;;;5049608;28;20454;-80
2023/12/27 11:15:02;;;;;;;2.70;2.50;;;12.70;99.90;;;;;;5045577;28;20450;-79
2023/12/27 11:17:41;;;;;;;2.67;2.47;;;12.90;99.90;;;;;;5038260;28;20947;-82
2023/12/27 11:20:27;;;;;;;3.00;2.63;;;13.00;99.90;;;;;;5039251;28;20499;-82
2023/12/27 11:23:01;;;;;;;6.47;2.87;;;13.00;99.90;;;;;;5042271;28;20455;-80
2023/12/27 11:25:41;;;;;;;3.50;3.20;;;13.00;99.90;;;;;;5046964;28;20439;-81
2023/12/27 11:28:28;;;;;;;5.43;3.60;;;13.00;99.90;;;;;;5046970;28;20457;-80
2023/12/27 11:31:07;;;;;;;3.20;2.53;;;13.20;99.90;;;;;;5046287;28;20500;-82
2023/12/27 11:33:40;;;;;;;5.70;3.53;;;13.20;99.90;;;;;;5045766;28;20488;-80
2023/12/27 11:36:16;;;;;;;4.17;3.87;;;12.90;99.90;;;;;;5046400;28;20435;-81
2023/12/27 11:38:52;;;;;;;4.80;4.30;;;13.10;99.90;;;;;;5046461;28;20480;-80
2023/12/27 11:41:29;;;;;;;4.90;4.07;;;13.00;99.90;;;;;;5047470;28;20495;-82
2023/12/27 11:44:34;;;;;;;6.03;4.27;;;13.10;99.90;;;;;;5047693;28;20455;-82
2023/12/27 11:47:10;;;;;;;5.50;4.40;;;13.10;99.90;;;;;;5043571;28;20446;-83
2023/12/27 11:49:46;;;;;;;6.47;4.27;;;13.00;99.90;;;;;;5037444;28;20466;-82
2023/12/27 11:52:28;;;;;;;4.60;4.13;;;13.10;99.90;;;;;;5031656;28;20475;-83
2023/12/27 11:55:25;;;;;;;;;;;;;;;;;;;;;
2023/12/27 11:58:06;;;;;;;7.87;4.23;;;12.90;99.90;;;;;;5034123;28;20435;-82
2023/12/27 12:00:44;;;;;;;4.83;4.30;;;13.00;99.90;;;;;;5027909;28;20475;-84
2023/12/27 12:03:28;;;;;;;4.13;3.57;;;13.20;99.90;;;;;;5026834;28;20522;-82
2023/12/27 12:06:13;;;;;;;5.50;4.20;;;13.10;99.90;;;;;;5026638;28;20513;-84
2023/12/27 12:08:57;;;;;;;4.17;2.40;;;13.10;99.90;;;;;;5024537;28;20542;-84
2023/12/27 12:11:32;;;;;;;3.90;2.50;;;13.20;99.90;;;;;;5023792;28;20878;-84
2023/12/27 12:14:03;;;;;;;2.93;2.63;;;13.30;99.90;;;;;;5023876;28;20465;-82
2023/12/27 12:16:48;;;;;;;2.80;2.60;;;13.30;99.90;;;;;;5037140;28;20446;-83
2023/12/27 12:19:18;;;;;;;2.93;2.43;;;13.30;99.90;;;;;;5044637;28;20486;-83
2023/12/27 12:21:53;;;;;;;3.93;2.90;;;13.30;99.90;;;;;;5045240;28;20474;-83
2023/12/27 12:24:23;;;;;;;5.90;3.17;;;13.10;99.90;;;;;;5041974;28;20472;-83
2023/12/27 12:26:56;;;;;;;3.83;3.53;;;13.30;99.90;;;;;;5040848;28;20554;-84
2023/12/27 12:29:27;;;;;;;5.30;3.50;;;13.30;99.90;;;;;;5026099;28;20479;-84
2023/12/27 12:32:13;;;;;;;4.87;3.27;;;13.30;99.90;;;;;;5024871;28;20479;-85
2023/12/27 12:34:43;;;;;;;4.10;3.10;;;12.90;99.90;;;;;;5028779;28;20452;-82
2023/12/27 12:58:47;;;;;;;4.07;3.77;;;12.90;99.90;;;;;;5033815;28;20472;-80
2023/12/27 13:02:01;;;;;;;4.10;2.90;;;12.90;99.90;;;;;;5033912;28;20470;-81
2023/12/27 13:04:57;;;;;;;5.73;3.40;;;12.70;99.90;;;;;;5013981;28;20477;-83
2023/12/27 13:07:41;;;;;;;4.23;3.30;;;12.90;99.90;;;;;;5044158;28;20454;-80
2023/12/27 13:10:25;;;;;;;4.40;3.50;;;12.90;99.90;;;;;;5031546;28;20427;-82
2023/12/27 13:13:04;;;;;;;5.03;4.00;;;12.70;99.90;;;;;;5024061;28;20486;-82
2023/12/27 13:16:08;;;;;;;5.03;4.20;;;12.60;99.90;;;;;;5028052;28;20454;-82
2023/12/27 13:22:05;;;;;;;4.30;3.70;;;12.80;99.90;;;;;;5040448;28;20491;-80
2023/12/27 13:24:53;;;;;;;;;;;;;;;;;;;;;
2023/12/27 13:31:12;;;;;;;;;;;;;;;;;;;;;
2023/12/27 13:33:55;;;;;;;4.13;3.53;;;12.90;99.90;;;;;;5039900;28;20477;-82
2023/12/27 13:36:29;;;;;;;4.60;3.90;;;12.90;99.90;;;;;;5041177;28;20470;-83
2023/12/27 13:39:13;;;;;;;4.30;3.50;;;12.90;99.90;;;;;;5040527;28;20843;-81
2023/12/27 13:41:53;;;;;;;4.73;4.27;;;12.80;99.90;;;;;;5039781;28;20524;-81
2023/12/27 13:44:34;;;;;;;4.83;4.20;;;12.80;99.90;;;;;;5039685;28;20445;-79
2023/12/27 13:47:48;;;;;;;4.47;3.57;;;12.70;99.90;;;;;;5037611;28;20443;-81
2023/12/27 13:50:43;;;;;;;4.70;3.90;;;12.70;99.90;;;;;;5039997;28;21013;-82
2023/12/27 13:53:18;;;;;;;4.70;3.10;;;12.70;99.90;;;;;;5040413;28;20450;-82
2023/12/27 13:56:06;;;;;;;7.93;3.43;;;12.90;99.90;;;;;;5038471;28;20456;-83
2023/12/27 13:59:01;;;;;;;3.67;3.30;;;12.90;99.90;;;;;;5038572;28;20481;-83
2023/12/27 14:02:00;;;;;;;3.80;3.50;;;12.60;99.90;;;;;;5028264;28;20906;-81
2023/12/27 14:04:43;;;;;;;4.20;3.80;;;12.60;99.90;;;;;;5037163;28;20470;-81
2023/12/27 14:07:32;;;;;;;5.00;4.00;;;12.50;99.90;;;;;;5020401;28;20479;-83
2023/12/27 14:10:18;;;;;;;4.47;4.07;;;12.50;99.90;;;;;;5022297;28;20466;-83
2023/12/27 14:13:01;;;;;;;5.43;4.93;;;12.40;99.90;;;;;;5024176;28;20459;-83
2023/12/27 14:15:32;;;;;;;4.90;4.40;;;12.40;99.90;;;;;;5024029;28;20451;-83
2023/12/27 14:18:14;;;;;;;7.03;3.90;;;12.30;99.90;;;;;;5026456;28;20501;-85
2023/12/27 14:20:52;;;;;;;9.50;3.97;;;12.30;99.90;;;;;;5024001;28;20566;-84
2023/12/27 14:23:32;;;;;;;7.57;4.53;;;12.30;99.90;;;;;;5025113;28;20534;-83
2023/12/27 14:26:20;;;;;;;11.93;3.63;;;12.20;99.90;;;;;;5024472;28;20474;-81
2023/12/27 14:29:14;;;;;;;12.47;4.70;;;12.20;99.90;;;;;;5023406;28;20479;-83
2023/12/27 14:31:46;;;;;;;8.07;4.20;;;12.10;99.90;;;;;;5024698;28;20487;-82
2023/12/27 14:34:36;;;;;;;6.37;4.00;;;12.10;99.90;;;;;;5024378;28;20529;-83
2023/12/27 14:37:15;;;;;;;6.20;4.30;;;12.00;99.90;;;;;;5023513;28;20456;-81
2023/12/27 14:39:48;;;;;;;5.50;4.03;;;11.90;99.90;;;;;;5021855;28;20988;-84
2023/12/27 14:45:16;;;;;;;7.37;4.90;;;11.80;99.90;;;;;;5021626;28;20420;-83
2023/12/27 14:47:52;;;;;;;10.07;4.23;;;11.80;99.90;;;;;;5020907;28;20513;-82
2023/12/27 14:50:40;;;;;;;6.07;4.20;;;11.70;99.90;;;;;;5019235;28;20980;-81
2023/12/27 14:53:35;;;;;;;7.70;4.30;;;11.70;99.90;;;;;;5020001;28;20458;-83